createdAt,value
2016-08-01T00:07:16.223Z,33.8
2016-08-01T00:18:16.646Z,32.8
2016-08-01T00:29:16.526Z,33.2
2016-08-01T00:40:16.515Z,33.5
2016-08-01T00:51:17.120Z,32.9
2016-08-01T01:02:16.812Z,33.6
2016-08-01T01:13:16.443Z,32.3
2016-08-01T01:24:21.990Z,32
2016-08-01T01:35:16.491Z,32
2016-08-01T01:46:17.971Z,31.7
2016-08-01T01:57:16.639Z,31.6
2016-08-01T02:08:16.964Z,31.1
2016-08-01T02:19:16.362Z,31
2016-08-01T02:30:16.741Z,31
2016-08-01T02:41:16.883Z,30.8
2016-08-01T02:52:16.499Z,30.7
2016-08-01T03:03:16.583Z,30.7
2016-08-01T03:14:16.851Z,31.6
2016-08-01T03:25:16.791Z,30.4
2016-08-01T03:36:17.003Z,30.3
2016-08-01T03:47:16.660Z,30
2016-08-01T03:58:21.555Z,29.8
2016-08-01T04:09:17.202Z,29.4
2016-08-01T04:20:16.661Z,28.5
2016-08-01T04:31:16.682Z,30.1
2016-08-01T04:42:16.420Z,30.2
2016-08-01T04:53:15.756Z,43.5
2016-08-01T05:04:16.858Z,29.6
2016-08-01T05:15:17.077Z,29.8
2016-08-01T05:26:21.630Z,29.6
2016-08-01T05:37:16.726Z,30.3
2016-08-01T05:48:17.092Z,32.8
2016-08-01T05:59:16.295Z,34.7
2016-08-01T06:10:17.027Z,35.2
2016-08-01T06:21:21.465Z,35.7
2016-08-01T06:32:17.064Z,37
2016-08-01T06:43:16.362Z,37.8
2016-08-01T06:54:16.998Z,39.4
2016-08-01T07:05:16.413Z,40.7
2016-08-01T07:16:17.596Z,39
2016-08-01T07:27:16.927Z,38.4
2016-08-01T07:38:16.207Z,38.7
2016-08-01T07:49:16.661Z,39.5
2016-08-01T08:00:16.348Z,38.4
2016-08-01T08:11:16.235Z,37.5
2016-08-01T08:22:16.131Z,37.2
2016-08-01T08:33:16.719Z,37.2
2016-08-01T08:44:16.887Z,37.4
2016-08-01T08:55:16.401Z,37
2016-08-01T09:06:17.004Z,36.7
2016-08-01T09:17:16.471Z,36.8
2016-08-01T09:28:16.227Z,36.2
2016-08-01T09:39:17.333Z,36.3
2016-08-01T09:50:16.778Z,36.7
2016-08-01T10:01:16.574Z,36.2
2016-08-01T10:12:17.294Z,35.5
2016-08-01T10:23:18.026Z,35.2
2016-08-01T10:34:17.283Z,36
2016-08-01T10:45:16.960Z,35.5
2016-08-01T10:56:16.851Z,35.8
2016-08-01T11:07:16.649Z,35.6
2016-08-01T11:18:16.313Z,36.8
2016-08-01T11:29:16.410Z,36.7
2016-08-01T11:40:17.323Z,36.4
2016-08-01T11:51:19.426Z,35.9
2016-08-01T12:02:16.914Z,36.5
2016-08-01T12:13:16.616Z,35.9
2016-08-01T12:24:16.999Z,36.3
2016-08-01T12:35:16.948Z,37.1
2016-08-01T12:46:16.967Z,36.2
2016-08-01T12:57:16.885Z,36.9
2016-08-01T13:08:16.588Z,35.7
2016-08-01T13:19:16.220Z,36
2016-08-01T13:30:16.423Z,35.4
2016-08-01T13:41:16.777Z,35.2
2016-08-01T13:52:16.333Z,36.8
2016-08-01T14:03:16.589Z,36.4
2016-08-01T14:14:16.987Z,37.2
2016-08-01T14:25:16.561Z,38
2016-08-01T14:36:21.938Z,39.1
2016-08-01T14:47:16.538Z,39.7
2016-08-01T14:58:16.819Z,40.7
2016-08-01T15:09:17.122Z,42.4
2016-08-01T15:20:16.641Z,42.9
2016-08-01T15:31:21.633Z,43.9
2016-08-01T15:42:17.225Z,44.7
2016-08-01T15:53:16.696Z,45.2
2016-08-01T16:04:21.034Z,46
2016-08-01T16:15:17.093Z,45.9
2016-08-01T16:26:17.375Z,46.6
2016-08-01T16:37:21.128Z,44.5
2016-08-01T16:48:16.224Z,43.8
2016-08-01T16:59:16.719Z,44.3
2016-08-01T17:10:16.483Z,45.3
2016-08-01T17:21:16.879Z,44.1
2016-08-01T17:32:16.361Z,43
2016-08-01T17:43:21.868Z,42.8
2016-08-01T17:54:16.353Z,42.7
2016-08-01T18:05:16.195Z,42.6
2016-08-01T18:16:16.634Z,41.7
2016-08-01T18:27:16.554Z,41
2016-08-01T18:38:16.914Z,40.8
2016-08-01T18:49:16.486Z,39.8
2016-08-01T19:00:16.399Z,39.5
2016-08-01T19:11:17.642Z,42.6
2016-08-01T19:22:16.904Z,43.6
2016-08-01T19:33:16.743Z,44.2
2016-08-01T19:44:16.671Z,44.3
2016-08-01T19:55:16.658Z,44.5
2016-08-01T20:06:16.410Z,45.3
2016-08-01T20:17:16.618Z,46.4
2016-08-01T20:28:16.258Z,46.5
2016-08-01T20:39:17.011Z,46.6
2016-08-01T20:50:16.838Z,43.9
2016-08-01T21:01:21.799Z,44.4
2016-08-01T21:12:16.913Z,44
2016-08-01T21:23:16.360Z,44.1
2016-08-01T21:34:16.393Z,61.1
2016-08-01T21:45:21.636Z,52.6
2016-08-01T21:56:16.781Z,41.7
2016-08-01T22:07:17.120Z,41.6
2016-08-01T22:18:16.352Z,41.2
2016-08-01T22:29:21.163Z,40.3
2016-08-01T22:40:17.266Z,39.8
2016-08-01T22:51:16.883Z,39.7
2016-08-01T23:02:16.507Z,39.1
2016-08-01T23:13:16.057Z,41.2
2016-08-01T23:24:16.972Z,38.6
2016-08-01T23:35:16.055Z,53.7
2016-08-01T23:46:16.248Z,48.6
2016-08-01T23:57:16.624Z,38
